Time;durP1;ratioP1;P1;durP2;ratioP2;P2;SDS_P1;SDS_P2;PMS_P1;PMS_P2;Temp;Humidity;BMP_temperature;BMP_pressure;BME280_temperature;BME280_humidity;BME280_pressure;Samples;Min_cycle;Max_cycle;Signal;HPM_P1;HPM_P2
2021/03/15 06:46:19;;;;;;;0.60;0.60;;;5.50;99.90;;;;;;6191311;23;20195;-91
2021/03/15 06:52:18;;;;;;;0.50;0.50;;;6.20;99.90;;;;;;6177865;23;20192;-84
2021/03/15 06:55:06;;;;;;;0.50;0.50;;;2.80;99.90;;;;;;6176777;22;20181;-83
2021/03/15 06:57:35;;;;;;;0.50;0.50;;;5.10;99.90;;;;;;6103325;23;20266;-84
2021/03/15 08:29:47;;;;;;;0.60;0.60;;;4.50;99.90;;;;;;5990092;23;20295;-87
2021/03/15 08:32:43;;;;;;;0.50;0.50;;;4.30;99.90;;;;;;6005121;23;20176;-90
2021/03/15 08:48:59;;;;;;;0.60;0.60;;;7.30;99.90;;;;;;6151740;23;20267;-82
2021/03/15 08:51:48;;;;;;;0.50;0.50;;;4.60;99.90;;;;;;6116999;23;20205;-82
2021/03/15 08:54:19;;;;;;;0.50;0.50;;;4.60;99.90;;;;;;6114409;23;20623;-82
2021/03/15 08:56:48;;;;;;;0.50;0.50;;;4.70;99.90;;;;;;6116404;23;20175;-82
2021/03/15 08:59:21;;;;;;;0.50;0.50;;;4.70;99.90;;;;;;6116344;23;20631;-82
2021/03/15 09:01:50;;;;;;;0.60;0.60;;;4.60;99.90;;;;;;6116262;23;20190;-82
2021/03/15 09:04:41;;;;;;;0.57;0.57;;;4.60;99.90;;;;;;6117986;23;20183;-82
2021/03/15 09:07:30;;;;;;;0.50;0.50;;;4.70;99.90;;;;;;6115391;23;20201;-82
2021/03/15 09:09:57;;;;;;;0.50;0.50;;;4.70;99.90;;;;;;6117170;23;20182;-82
2021/03/15 09:12:23;;;;;;;0.50;0.50;;;4.80;99.90;;;;;;6116151;23;20186;-82
2021/03/15 09:14:55;;;;;;;0.50;0.50;;;4.80;99.90;;;;;;6117610;23;20182;-81
2021/03/15 09:17:32;;;;;;;0.50;0.50;;;4.80;99.90;;;;;;6116095;23;20183;-82
2021/03/15 09:20:16;;;;;;;0.50;0.50;;;4.80;99.90;;;;;;6117592;23;20198;-82
2021/03/15 09:22:42;;;;;;;0.50;0.50;;;4.80;99.90;;;;;;6117157;23;20170;-82
2021/03/15 09:25:18;;;;;;;0.60;0.60;;;4.80;99.90;;;;;;6117896;23;20186;-86
2021/03/15 09:27:46;;;;;;;0.50;0.50;;;4.70;99.90;;;;;;6117231;23;20169;-86
2021/03/15 09:30:19;;;;;;;0.50;0.50;;;6.30;99.90;;;;;;6117334;23;20179;-86
2021/03/15 09:32:50;;;;;;;0.50;0.50;;;4.90;99.90;;;;;;6135107;23;20193;-84
2021/03/15 09:35:56;;;;;;;0.50;0.50;;;4.30;99.90;;;;;;6132324;23;20177;-86
2021/03/15 09:39:04;;;;;;;;;;;;;;;;;;;;;
2021/03/15 09:41:56;;;;;;;0.50;0.50;;;4.80;99.90;;;;;;6146998;23;20189;-86
2021/03/15 09:44:52;;;;;;;0.50;0.50;;;4.30;99.90;;;;;;6146109;23;20170;-86
2021/03/15 09:47:38;;;;;;;0.50;0.50;;;6.40;99.90;;;;;;6144167;23;20615;-85
2021/03/15 09:50:20;;;;;;;0.50;0.50;;;4.70;99.90;;;;;;6123136;22;20258;-84
2021/03/15 09:53:11;;;;;;;0.50;0.50;;;5.50;99.90;;;;;;6111089;23;20163;-85
2021/03/15 09:55:44;;;;;;;0.50;0.50;;;5.90;99.90;;;;;;6100294;22;20423;-87
2021/03/15 09:58:16;;;;;;;0.50;0.50;;;5.10;99.90;;;;;;6129331;23;20181;-84
2021/03/15 10:00:57;;;;;;;;;;;;;;;;;;;;;
2021/03/15 10:03:52;;;;;;;0.50;0.50;;;5.10;99.90;;;;;;6132872;23;20151;-84
2021/03/15 10:06:27;;;;;;;0.50;0.50;;;7.00;99.90;;;;;;6105024;23;20291;-83
2021/03/15 10:08:56;;;;;;;0.60;0.60;;;5.40;99.90;;;;;;6125058;23;20186;-83
2021/03/15 10:11:49;;;;;;;0.50;0.50;;;5.20;99.90;;;;;;6142554;23;20187;-85
2021/03/15 10:19:28;;;;;;;0.50;0.50;;;5.40;99.90;;;;;;6090861;22;20202;-85
2021/03/15 10:24:35;;;;;;;0.50;0.50;;;5.60;99.90;;;;;;6097759;22;20202;-82
2021/03/15 10:27:03;;;;;;;0.50;0.50;;;5.20;99.90;;;;;;6094323;23;20671;-87
2021/03/15 10:29:29;;;;;;;0.50;0.50;;;5.20;99.90;;;;;;6086991;23;20179;-86
2021/03/15 10:32:00;;;;;;;0.60;0.60;;;5.40;99.90;;;;;;6088253;23;20175;-86
2021/03/15 10:34:27;;;;;;;0.50;0.50;;;4.90;99.90;;;;;;6088520;23;20182;-86
2021/03/15 10:36:55;;;;;;;0.60;0.60;;;5.70;99.90;;;;;;6089074;23;20182;-85
2021/03/15 10:39:22;;;;;;;0.50;0.50;;;5.90;99.90;;;;;;6091876;23;20430;-85
2021/03/15 10:41:52;;;;;;;0.60;0.60;;;5.90;99.90;;;;;;6095301;23;20199;-86
2021/03/15 10:44:20;;;;;;;0.50;0.50;;;5.40;99.90;;;;;;6089540;23;20229;-85
2021/03/15 10:46:49;;;;;;;0.60;0.60;;;8.90;99.90;;;;;;6086631;23;20187;-86
2021/03/15 10:49:20;;;;;;;0.60;0.60;;;5.80;99.90;;;;;;6085268;23;20232;-85
2021/03/15 10:51:46;;;;;;;0.60;0.60;;;7.00;99.90;;;;;;6086190;23;20199;-85
2021/03/15 10:54:30;;;;;;;0.60;0.60;;;6.00;99.90;;;;;;6089327;23;20198;-85
2021/03/15 10:57:16;;;;;;;0.60;0.60;;;6.80;99.90;;;;;;6087224;23;20475;-86
2021/03/15 10:59:46;;;;;;;0.60;0.60;;;6.90;99.90;;;;;;6087163;23;20242;-86
2021/03/15 11:02:20;;;;;;;0.57;0.57;;;5.90;99.90;;;;;;6087313;23;20183;-85
2021/03/15 11:04:52;;;;;;;0.60;0.60;;;7.00;99.90;;;;;;6088938;23;20174;-85
2021/03/15 11:07:27;;;;;;;0.57;0.57;;;6.90;99.90;;;;;;6085816;23;20172;-85
2021/03/15 11:09:59;;;;;;;0.55;0.55;;;7.40;99.90;;;;;;6086298;23;20174;-85
2021/03/15 11:12:45;;;;;;;0.50;0.50;;;8.90;99.90;;;;;;6093788;23;20178;-82
2021/03/15 11:15:33;;;;;;;0.60;0.60;;;8.20;99.90;;;;;;6117632;23;20198;-81
2021/03/15 11:18:11;;;;;;;0.50;0.50;;;8.70;99.90;;;;;;6096170;23;20174;-86
2021/03/15 11:21:10;;;;;;;0.60;0.60;;;7.00;99.90;;;;;;6095465;23;20205;-84
2021/03/15 11:23:40;;;;;;;0.60;0.60;;;8.40;99.90;;;;;;6092500;23;20203;-84
2021/03/15 11:26:16;;;;;;;0.50;0.50;;;7.50;99.90;;;;;;6094188;23;20238;-84
2021/03/15 11:28:49;;;;;;;0.60;0.60;;;6.50;99.90;;;;;;6094166;22;20202;-84
2021/03/15 11:31:16;;;;;;;0.60;0.60;;;8.50;99.90;;;;;;6084808;23;20172;-86
2021/03/15 11:33:51;;;;;;;0.60;0.60;;;9.10;99.90;;;;;;6087989;23;20183;-86
2021/03/15 11:36:21;;;;;;;0.60;0.60;;;7.70;99.90;;;;;;6088725;23;20159;-86
2021/03/15 11:38:52;;;;;;;0.60;0.60;;;7.40;99.90;;;;;;6091654;23;20194;-85
2021/03/15 11:41:20;;;;;;;0.60;0.60;;;7.20;99.90;;;;;;6090344;23;20207;-85
2021/03/15 11:43:47;;;;;;;0.57;0.57;;;6.80;99.90;;;;;;6090455;23;20237;-86
2021/03/15 11:46:15;;;;;;;0.50;0.50;;;7.70;99.90;;;;;;6089917;23;20183;-86
2021/03/15 11:48:46;;;;;;;0.60;0.60;;;7.90;99.90;;;;;;6087021;23;20578;-85
2021/03/15 11:51:14;;;;;;;0.60;0.60;;;7.60;99.90;;;;;;6085888;23;20199;-85
2021/03/15 11:53:41;;;;;;;0.60;0.60;;;9.90;99.90;;;;;;6087551;23;20186;-86
2021/03/15 11:56:08;;;;;;;0.57;0.57;;;7.10;99.90;;;;;;6089481;23;20183;-88
2021/03/15 11:58:35;;;;;;;0.60;0.60;;;7.10;99.90;;;;;;6088848;23;20194;-88
2021/03/15 12:01:01;;;;;;;0.50;0.50;;;7.10;99.90;;;;;;6086880;23;20257;-86
2021/03/15 12:03:27;;;;;;;0.60;0.60;;;7.40;99.90;;;;;;6086095;23;20182;-86
2021/03/15 12:05:53;;;;;;;0.60;0.60;;;7.30;99.90;;;;;;6086404;23;20180;-86
2021/03/15 12:08:19;;;;;;;0.60;0.60;;;7.80;99.90;;;;;;6088980;23;20787;-86
2021/03/15 12:10:47;;;;;;;0.50;0.50;;;8.50;99.90;;;;;;6088149;23;20183;-86
2021/03/15 12:13:13;;;;;;;0.60;0.60;;;8.00;99.90;;;;;;6086376;23;20183;-87
2021/03/15 12:15:39;;;;;;;0.60;0.60;;;7.70;99.90;;;;;;6088092;23;20259;-87
2021/03/15 12:18:06;;;;;;;0.60;0.60;;;7.80;99.90;;;;;;6087781;23;20182;-87
2021/03/15 12:20:32;;;;;;;0.60;0.60;;;7.60;99.90;;;;;;6088187;23;20257;-87
2021/03/15 12:22:59;;;;;;;0.60;0.60;;;7.20;99.90;;;;;;6088256;23;20237;-87
2021/03/15 12:25:26;;;;;;;0.60;0.60;;;6.80;99.90;;;;;;6088800;23;20183;-86
2021/03/15 12:27:53;;;;;;;0.60;0.60;;;6.50;99.90;;;;;;6085951;23;20232;-87
2021/03/15 12:30:20;;;;;;;0.60;0.60;;;6.20;99.90;;;;;;6083083;23;20202;-87
2021/03/15 12:32:47;;;;;;;0.60;0.60;;;6.50;99.90;;;;;;6087258;23;20275;-87
2021/03/15 12:35:13;;;;;;;0.50;0.50;;;6.60;99.90;;;;;;6093821;23;20194;-85
2021/03/15 12:37:41;;;;;;;0.60;0.60;;;6.60;99.90;;;;;;6100841;23;20183;-85
2021/03/15 12:40:08;;;;;;;0.52;0.52;;;7.70;99.90;;;;;;6100953;23;20329;-85
2021/03/15 12:42:35;;;;;;;0.50;0.50;;;5.60;99.90;;;;;;6089395;23;20198;-85
2021/03/15 12:45:06;;;;;;;0.50;0.50;;;6.30;99.90;;;;;;6091249;23;20195;-85
2021/03/15 12:47:32;;;;;;;0.60;0.60;;;6.20;99.90;;;;;;6089256;23;20250;-84
2021/03/15 12:49:59;;;;;;;0.50;0.50;;;7.80;99.90;;;;;;6089507;23;20183;-85
2021/03/15 12:52:27;;;;;;;0.50;0.50;;;6.10;99.90;;;;;;6088698;23;20455;-87
2021/03/15 12:54:53;;;;;;;0.50;0.50;;;6.10;99.90;;;;;;6090757;23;20253;-84
2021/03/15 12:57:20;;;;;;;0.60;0.60;;;8.30;99.90;;;;;;6095223;23;20183;-85
2021/03/15 12:59:46;;;;;;;0.55;0.55;;;5.90;99.90;;;;;;6095266;23;20209;-87
2021/03/15 13:02:16;;;;;;;0.60;0.60;;;6.10;99.90;;;;;;6087692;23;20206;-86
2021/03/15 13:04:42;;;;;;;0.60;0.60;;;5.80;99.90;;;;;;6088406;23;20262;-84
2021/03/15 13:07:09;;;;;;;0.60;0.60;;;5.50;99.90;;;;;;6085381;23;20237;-87
2021/03/15 13:09:35;;;;;;;0.50;0.50;;;6.50;99.90;;;;;;6085995;23;20640;-83
2021/03/15 13:12:01;;;;;;;0.60;0.60;;;6.10;99.90;;;;;;6089137;23;20222;-86
2021/03/15 13:14:28;;;;;;;0.60;0.60;;;4.10;99.90;;;;;;6089312;23;20251;-86
2021/03/15 13:16:54;;;;;;;0.52;0.52;;;6.30;99.90;;;;;;6088381;23;20184;-87
2021/03/15 13:19:24;;;;;;;0.60;0.60;;;8.00;99.90;;;;;;6099833;23;20182;-87
2021/03/15 13:21:53;;;;;;;0.60;0.60;;;5.70;99.90;;;;;;6099747;23;20528;-87
2021/03/15 13:24:19;;;;;;;0.52;0.52;;;4.70;99.90;;;;;;6099788;23;20213;-85
2021/03/15 13:26:59;;;;;;;0.60;0.60;;;8.40;99.90;;;;;;6097697;23;20211;-84
2021/03/15 13:32:15;;;;;;;0.60;0.60;;;6.50;99.90;;;;;;6095524;22;20194;-86
2021/03/15 13:37:27;;;;;;;0.60;0.60;;;5.50;99.90;;;;;;6105117;23;20234;-88
2021/03/15 13:42:31;;;;;;;0.60;0.60;;;6.10;99.90;;;;;;6091430;22;20201;-88
2021/03/15 13:45:05;;;;;;;0.60;0.60;;;6.10;99.90;;;;;;6109254;23;20175;-88
2021/03/15 13:47:37;;;;;;;0.55;0.55;;;7.30;99.90;;;;;;6093248;23;20183;-84
2021/03/15 13:50:05;;;;;;;0.60;0.60;;;7.30;99.90;;;;;;6096161;23;20239;-85
2021/03/15 13:52:31;;;;;;;0.60;0.60;;;6.20;99.90;;;;;;6090406;23;20507;-84
2021/03/15 13:55:01;;;;;;;0.60;0.60;;;3.80;99.90;;;;;;6093304;23;20624;-84
2021/03/15 13:57:28;;;;;;;0.60;0.60;;;8.20;99.90;;;;;;6092141;23;20211;-85
2021/03/15 14:00:02;;;;;;;0.60;0.60;;;7.10;99.90;;;;;;6093347;23;20179;-85
2021/03/15 14:02:31;;;;;;;0.60;0.60;;;7.20;99.90;;;;;;6092213;23;20623;-85
2021/03/15 14:04:58;;;;;;;0.60;0.60;;;5.40;99.90;;;;;;6097394;23;20182;-84
2021/03/15 14:07:25;;;;;;;0.60;0.60;;;7.20;99.90;;;;;;6096308;23;20183;-86
2021/03/15 14:09:52;;;;;;;0.60;0.60;;;6.30;99.90;;;;;;6091634;23;20191;-85
2021/03/15 14:12:18;;;;;;;0.55;0.55;;;7.80;99.90;;;;;;6086730;23;20179;-87
2021/03/15 14:15:14;;;;;;;0.50;0.50;;;6.80;99.90;;;;;;6091659;23;20187;-87
2021/03/15 14:17:40;;;;;;;0.52;0.52;;;6.20;99.90;;;;;;6109443;23;20183;-85
2021/03/15 14:20:11;;;;;;;0.60;0.60;;;8.70;99.90;;;;;;6091596;23;20203;-85
2021/03/15 14:22:50;;;;;;;0.60;0.60;;;8.20;99.90;;;;;;6091338;23;20179;-88
2021/03/15 14:25:17;;;;;;;0.60;0.60;;;6.20;99.90;;;;;;6096193;23;20155;-87
2021/03/15 14:27:45;;;;;;;0.52;0.52;;;6.10;99.90;;;;;;6107620;23;20183;-89
2021/03/15 14:30:13;;;;;;;0.60;0.60;;;8.20;99.90;;;;;;6105394;22;20207;-88
2021/03/15 14:32:39;;;;;;;0.50;0.50;;;5.40;99.90;;;;;;6087577;23;20179;-90
2021/03/15 14:42:04;;;;;;;;;;;;;;;;;;;;;
2021/03/15 14:45:24;;;;;;;;;;;;;;;;;;;;;
2021/03/15 14:55:07;;;;;;;;;;;;;;;;;;;;;
2021/03/15 15:10:53;;;;;;;;;;;;;;;;;;;;;
2021/03/15 15:14:09;;;;;;;;;;;;;;;;;;;;;
2021/03/15 15:16:49;;;;;;;0.52;0.52;;;4.00;99.90;;;;;;5917925;24;20261;-88
2021/03/15 15:19:29;;;;;;;0.60;0.60;;;4.30;99.90;;;;;;5918168;24;20190;-88
2021/03/15 15:22:23;;;;;;;0.60;0.60;;;9.40;99.90;;;;;;5918054;24;20568;-87
2021/03/15 15:28:39;;;;;;;;;;;;;;;;;;;;;
2021/03/15 15:31:25;;;;;;;0.60;0.60;;;5.60;99.90;;;;;;6020926;23;20273;-88
2021/03/15 15:34:19;;;;;;;0.60;0.60;;;6.40;99.90;;;;;;6094653;23;20183;-88
2021/03/15 15:37:23;;;;;;;0.60;0.60;;;5.30;99.90;;;;;;6089241;23;20645;-89
2021/03/15 15:40:12;;;;;;;0.60;0.60;;;7.70;99.90;;;;;;6118515;23;20182;-89
2021/03/15 15:43:30;;;;;;;0.60;0.60;;;5.00;99.90;;;;;;6095803;23;20175;-88
2021/03/15 15:46:22;;;;;;;;;;;;;;;;;;;;;
2021/03/15 15:49:44;;;;;;;;;;;;;;;;;;;;;
2021/03/15 15:53:16;;;;;;;;;;;;;;;;;;;;;
2021/03/15 15:58:34;;;;;;;0.60;0.60;;;3.90;99.90;;;;;;6092232;23;20526;-86
2021/03/15 16:01:01;;;;;;;0.60;0.60;;;3.90;99.90;;;;;;6095752;23;20282;-85
2021/03/15 16:03:33;;;;;;;0.60;0.60;;;5.10;99.90;;;;;;6108430;23;20180;-89
2021/03/15 16:06:02;;;;;;;0.60;0.60;;;6.30;99.90;;;;;;6091705;23;20242;-87
2021/03/15 16:08:32;;;;;;;0.50;0.50;;;6.80;99.90;;;;;;6092097;23;20199;-89
2021/03/15 16:10:59;;;;;;;0.60;0.60;;;6.70;99.90;;;;;;6087310;23;20194;-88
2021/03/15 16:13:25;;;;;;;0.60;0.60;;;6.30;99.90;;;;;;6089150;23;20435;-88
2021/03/15 16:15:51;;;;;;;0.60;0.60;;;4.60;99.90;;;;;;6088917;23;20230;-89
2021/03/15 16:18:18;;;;;;;0.60;0.60;;;5.60;99.90;;;;;;6088083;23;20190;-87
2021/03/15 16:20:44;;;;;;;0.50;0.50;;;4.50;99.90;;;;;;6088906;23;20203;-89
2021/03/15 16:23:11;;;;;;;0.60;0.60;;;4.70;99.90;;;;;;6089115;23;20179;-89
2021/03/15 16:25:38;;;;;;;0.60;0.60;;;4.50;99.90;;;;;;6088740;23;20262;-88
2021/03/15 16:28:08;;;;;;;0.60;0.60;;;5.90;99.90;;;;;;6088557;23;20183;-88
2021/03/15 16:30:35;;;;;;;0.60;0.60;;;5.20;99.90;;;;;;6089234;23;20207;-90
2021/03/15 16:33:04;;;;;;;0.50;0.50;;;4.50;99.90;;;;;;6096513;22;20167;-90
2021/03/15 16:35:31;;;;;;;0.60;0.60;;;9.10;99.90;;;;;;6092498;23;20218;-84
2021/03/15 16:38:19;;;;;;;0.57;0.57;;;6.30;99.90;;;;;;6092567;23;20179;-89
2021/03/15 16:40:49;;;;;;;0.60;0.60;;;4.10;99.90;;;;;;6095331;23;20218;-87
2021/03/15 16:43:55;;;;;;;;;;;;;;;;;;;;;
2021/03/15 16:47:06;;;;;;;0.60;0.60;;;6.40;99.90;;;;;;6024866;23;20181;-89
2021/03/15 16:49:45;;;;;;;0.60;0.60;;;5.90;99.90;;;;;;6010812;23;20185;-89
2021/03/15 16:52:37;;;;;;;0.60;0.60;;;3.80;99.90;;;;;;6007839;23;20205;-89
2021/03/15 16:55:21;;;;;;;;;;;;;;;;;;;;;
2021/03/15 16:57:56;;;;;;;0.60;0.60;;;5.10;99.90;;;;;;6012925;23;20228;-88
2021/03/15 17:00:39;;;;;;;;;;;;;;;;;;;;;
2021/03/15 17:03:12;;;;;;;0.50;0.50;;;5.80;99.90;;;;;;6013411;23;20219;-85
2021/03/15 17:05:40;;;;;;;0.60;0.60;;;4.30;99.90;;;;;;6023130;23;20192;-88
2021/03/15 17:08:39;;;;;;;0.50;0.50;;;5.30;99.90;;;;;;6034209;23;20230;-89
2021/03/15 17:11:07;;;;;;;0.57;0.57;;;5.30;99.90;;;;;;6109348;23;20163;-88
2021/03/15 17:13:33;;;;;;;0.50;0.50;;;5.40;99.90;;;;;;6098197;23;20186;-90
2021/03/15 17:16:02;;;;;;;0.50;0.50;;;8.90;99.90;;;;;;6092117;23;20254;-90
2021/03/15 17:18:29;;;;;;;0.50;0.50;;;4.90;99.90;;;;;;6090166;23;20305;-89
2021/03/15 17:21:13;;;;;;;0.60;0.60;;;3.60;99.90;;;;;;6091531;23;20227;-85
2021/03/15 17:23:40;;;;;;;0.50;0.50;;;4.70;99.90;;;;;;6090077;23;20171;-84
2021/03/15 17:26:07;;;;;;;0.55;0.55;;;3.90;99.90;;;;;;6095864;23;20160;-88
2021/03/15 17:28:37;;;;;;;0.60;0.60;;;3.60;99.90;;;;;;6089905;23;20175;-88
2021/03/15 17:31:21;;;;;;;0.60;0.60;;;6.00;99.90;;;;;;6106387;22;20530;-86
2021/03/15 17:33:47;;;;;;;0.60;0.60;;;4.00;99.90;;;;;;6094271;22;20202;-90
2021/03/15 17:36:15;;;;;;;0.60;0.60;;;4.50;99.90;;;;;;6092721;23;20183;-89
2021/03/15 17:38:42;;;;;;;0.57;0.57;;;4.30;99.90;;;;;;6090619;23;20179;-87
2021/03/15 17:41:10;;;;;;;0.60;0.60;;;4.50;99.90;;;;;;6095879;23;20191;-86
2021/03/15 17:43:37;;;;;;;0.60;0.60;;;7.70;99.90;;;;;;6102304;23;20203;-88
2021/03/15 17:46:04;;;;;;;0.50;0.50;;;4.30;99.90;;;;;;6103745;23;20250;-87
2021/03/15 17:48:31;;;;;;;0.60;0.60;;;4.50;99.90;;;;;;6099574;23;20182;-87
2021/03/15 17:50:57;;;;;;;0.50;0.50;;;5.50;99.90;;;;;;6095296;23;20195;-87
2021/03/15 17:53:25;;;;;;;0.50;0.50;;;4.60;99.90;;;;;;6092103;23;20179;-87
2021/03/15 17:55:52;;;;;;;0.60;0.60;;;4.60;99.90;;;;;;6098684;23;20313;-86
2021/03/15 17:58:24;;;;;;;0.50;0.50;;;4.30;99.90;;;;;;6095449;23;20183;-88
2021/03/15 18:00:52;;;;;;;0.60;0.60;;;5.50;99.90;;;;;;6096133;23;20639;-86
2021/03/15 18:03:18;;;;;;;0.60;0.60;;;3.20;99.90;;;;;;6093794;23;20217;-87
2021/03/15 18:05:51;;;;;;;0.52;0.52;;;4.50;99.90;;;;;;6090002;23;20179;-88
2021/03/15 18:08:17;;;;;;;0.60;0.60;;;3.80;99.90;;;;;;6088366;23;20192;-89
2021/03/15 18:10:48;;;;;;;0.50;0.50;;;4.70;99.90;;;;;;6087494;23;20176;-88
2021/03/15 18:13:17;;;;;;;0.50;0.50;;;5.50;99.90;;;;;;6089130;23;20179;-88
2021/03/15 18:15:46;;;;;;;0.52;0.52;;;7.30;99.90;;;;;;6089044;23;20233;-87
2021/03/15 18:18:12;;;;;;;0.57;0.57;;;5.30;99.90;;;;;;6093099;23;20190;-87
2021/03/15 18:20:39;;;;;;;0.60;0.60;;;4.30;99.90;;;;;;6096266;23;20179;-88
2021/03/15 18:23:19;;;;;;;0.55;0.55;;;5.70;99.90;;;;;;6095150;23;20179;-88
2021/03/15 18:25:46;;;;;;;0.60;0.60;;;5.70;99.90;;;;;;6109741;22;20151;-84
2021/03/15 18:28:13;;;;;;;0.60;0.60;;;4.70;99.90;;;;;;6090317;23;20197;-84
2021/03/15 18:30:39;;;;;;;0.60;0.60;;;4.60;99.90;;;;;;6098415;23;20273;-84
2021/03/15 18:33:07;;;;;;;0.60;0.60;;;5.70;99.90;;;;;;6092371;23;20202;-84
2021/03/15 18:35:34;;;;;;;0.60;0.60;;;4.80;99.90;;;;;;6087490;23;20505;-84
2021/03/15 18:38:00;;;;;;;0.60;0.60;;;4.60;99.90;;;;;;6088413;23;20183;-84
2021/03/15 18:40:27;;;;;;;0.60;0.60;;;3.70;99.90;;;;;;6087289;23;20247;-85
2021/03/15 18:42:54;;;;;;;0.50;0.50;;;4.70;99.90;;;;;;6087010;23;20204;-84
2021/03/15 18:45:20;;;;;;;0.50;0.50;;;4.60;99.90;;;;;;6087784;23;20226;-84
2021/03/15 18:47:47;;;;;;;0.60;0.60;;;3.80;99.90;;;;;;6086469;23;20628;-85
2021/03/15 18:50:14;;;;;;;0.50;0.50;;;5.00;99.90;;;;;;6088467;23;20175;-86
2021/03/15 18:52:41;;;;;;;0.50;0.50;;;5.20;99.90;;;;;;6086781;23;20168;-86
2021/03/15 18:55:08;;;;;;;0.50;0.50;;;4.70;99.90;;;;;;6087543;23;20199;-87
2021/03/15 18:57:35;;;;;;;0.50;0.50;;;4.70;99.90;;;;;;6087474;23;20229;-86
2021/03/15 19:00:11;;;;;;;0.57;0.57;;;4.50;99.90;;;;;;6107017;23;20183;-87
2021/03/15 19:10:45;;;;;;;0.50;0.50;;;4.80;99.90;;;;;;6088076;23;20205;-88
2021/03/15 19:20:11;;;;;;;0.57;0.57;;;3.20;99.90;;;;;;5896687;23;20181;-88
2021/03/15 19:28:46;;;;;;;0.60;0.60;;;5.30;99.90;;;;;;5908645;24;20182;-87
2021/03/15 19:31:18;;;;;;;0.50;0.50;;;7.10;99.90;;;;;;6082034;23;20187;-88
2021/03/15 19:33:51;;;;;;;0.50;0.50;;;4.50;99.90;;;;;;6093202;23;20187;-89
2021/03/15 19:36:30;;;;;;;0.60;0.60;;;6.60;99.90;;;;;;6093077;23;20172;-89
2021/03/15 19:38:59;;;;;;;0.50;0.50;;;4.10;99.90;;;;;;6093303;23;20254;-88
2021/03/15 19:41:29;;;;;;;0.57;0.57;;;5.50;99.90;;;;;;6093367;23;20503;-87
2021/03/15 19:43:55;;;;;;;0.60;0.60;;;6.50;99.90;;;;;;6093220;23;20315;-88
2021/03/15 19:46:25;;;;;;;0.60;0.60;;;4.60;99.90;;;;;;6092958;23;20654;-88
2021/03/15 19:48:53;;;;;;;0.60;0.60;;;4.50;99.90;;;;;;6092111;23;20199;-88
2021/03/15 19:51:21;;;;;;;0.60;0.60;;;4.00;99.90;;;;;;6093206;23;20171;-87
2021/03/15 19:53:47;;;;;;;0.60;0.60;;;4.00;99.90;;;;;;6093750;23;20178;-87
2021/03/15 19:56:14;;;;;;;0.50;0.50;;;7.70;99.90;;;;;;6091361;23;20183;-87
2021/03/15 19:58:40;;;;;;;0.60;0.60;;;4.60;99.90;;;;;;6093994;23;20221;-86
2021/03/15 20:01:07;;;;;;;0.60;0.60;;;5.40;99.90;;;;;;6094297;23;20195;-88
2021/03/15 20:03:33;;;;;;;0.60;0.60;;;7.00;99.90;;;;;;6094612;23;20183;-86
2021/03/15 20:06:00;;;;;;;0.60;0.60;;;6.40;99.90;;;;;;6094447;23;20238;-86
2021/03/15 20:09:11;;;;;;;0.52;0.52;;;7.20;99.90;;;;;;6093157;23;20195;-87
2021/03/15 20:11:53;;;;;;;0.57;0.57;;;5.00;99.90;;;;;;6093770;23;20228;-87
2021/03/15 20:14:20;;;;;;;0.60;0.60;;;7.20;99.90;;;;;;6094344;23;20195;-87
2021/03/15 20:16:54;;;;;;;0.60;0.60;;;4.70;99.90;;;;;;6093986;23;20183;-87
2021/03/15 20:19:29;;;;;;;0.52;0.52;;;5.10;99.90;;;;;;6094788;23;20178;-87
2021/03/15 20:21:56;;;;;;;0.60;0.60;;;3.90;99.90;;;;;;6093408;23;20269;-88
2021/03/15 20:24:25;;;;;;;0.60;0.60;;;4.60;99.90;;;;;;6093452;23;20560;-88
2021/03/15 20:26:53;;;;;;;0.60;0.60;;;6.30;99.90;;;;;;6093688;23;20202;-88
2021/03/15 20:29:34;;;;;;;0.60;0.60;;;8.40;99.90;;;;;;6093675;23;20265;-89
2021/03/15 20:32:01;;;;;;;0.50;0.50;;;6.90;99.90;;;;;;6092730;23;20688;-89
2021/03/15 20:34:41;;;;;;;0.60;0.60;;;4.40;99.90;;;;;;6092861;23;20180;-90
2021/03/15 20:37:14;;;;;;;0.60;0.60;;;5.90;99.90;;;;;;6092088;23;20603;-88
2021/03/15 20:39:49;;;;;;;0.60;0.60;;;3.90;99.90;;;;;;6092595;23;20481;-89
2021/03/15 20:42:18;;;;;;;0.50;0.50;;;4.00;99.90;;;;;;6093018;23;20244;-88
2021/03/15 20:44:44;;;;;;;0.57;0.57;;;4.30;99.90;;;;;;6092667;23;20179;-88
2021/03/15 20:50:20;;;;;;;0.60;0.60;;;5.80;99.90;;;;;;6086291;23;20237;-89
2021/03/15 20:52:47;;;;;;;0.60;0.60;;;7.10;99.90;;;;;;6093939;23;20179;-88
2021/03/15 20:55:17;;;;;;;0.57;0.57;;;5.30;99.90;;;;;;6093388;23;20183;-89
2021/03/15 20:57:47;;;;;;;0.60;0.60;;;5.50;99.90;;;;;;6091021;23;20183;-88
2021/03/15 21:00:32;;;;;;;0.50;0.50;;;3.70;99.90;;;;;;6091560;23;20246;-89
2021/03/15 21:03:32;;;;;;;0.60;0.60;;;5.10;99.90;;;;;;6090639;23;20659;-90
2021/03/15 21:06:01;;;;;;;0.50;0.50;;;5.40;99.90;;;;;;6092612;23;20257;-89
2021/03/15 21:08:27;;;;;;;0.60;0.60;;;4.40;99.90;;;;;;6093292;23;20183;-89
2021/03/15 21:10:57;;;;;;;0.50;0.50;;;7.10;99.90;;;;;;6092623;23;20258;-88
2021/03/15 21:13:26;;;;;;;0.60;0.60;;;3.50;99.90;;;;;;6093304;23;20179;-89
2021/03/15 21:16:01;;;;;;;0.60;0.60;;;6.50;99.90;;;;;;6093378;23;20185;-88
2021/03/15 21:18:36;;;;;;;0.60;0.60;;;4.20;99.90;;;;;;6092620;23;20166;-88
2021/03/15 21:21:05;;;;;;;0.50;0.50;;;4.90;99.90;;;;;;6093258;23;20177;-88
2021/03/15 21:26:27;;;;;;;0.52;0.52;;;3.10;99.90;;;;;;6084648;23;20558;-87
2021/03/15 21:28:55;;;;;;;0.60;0.60;;;4.60;99.90;;;;;;6095004;23;20171;-86
2021/03/15 21:31:21;;;;;;;0.50;0.50;;;5.10;99.90;;;;;;6094608;23;20271;-86
2021/03/15 21:33:50;;;;;;;0.60;0.60;;;4.50;99.90;;;;;;6094643;23;20179;-87
2021/03/15 21:36:19;;;;;;;0.52;0.52;;;2.90;99.90;;;;;;6092915;23;20179;-87
2021/03/15 21:38:46;;;;;;;0.60;0.60;;;7.00;99.90;;;;;;6092553;23;20187;-87
2021/03/15 21:41:17;;;;;;;0.60;0.60;;;4.30;99.90;;;;;;6092431;23;20206;-87
2021/03/15 21:43:44;;;;;;;0.60;0.60;;;6.00;99.90;;;;;;6093143;23;20187;-87
2021/03/15 21:46:14;;;;;;;0.60;0.60;;;3.40;99.90;;;;;;6093522;23;20227;-86
2021/03/15 21:48:43;;;;;;;0.50;0.50;;;4.30;99.90;;;;;;6093230;23;20178;-87
2021/03/15 21:51:19;;;;;;;0.50;0.50;;;6.60;99.90;;;;;;6093104;23;20180;-87
2021/03/15 21:53:51;;;;;;;0.60;0.60;;;5.80;99.90;;;;;;6093326;23;20185;-87
2021/03/15 21:56:19;;;;;;;0.60;0.60;;;6.20;99.90;;;;;;6093071;23;20631;-87
2021/03/15 21:58:49;;;;;;;0.50;0.50;;;6.90;99.90;;;;;;6093166;23;20455;-88
2021/03/15 22:01:18;;;;;;;0.60;0.60;;;4.20;99.90;;;;;;6093141;23;20686;-87
2021/03/15 22:06:40;;;;;;;0.60;0.60;;;5.40;99.90;;;;;;6089953;23;20277;-87
2021/03/15 22:09:17;;;;;;;0.60;0.60;;;4.40;99.90;;;;;;6093585;23;20179;-87
2021/03/15 22:11:46;;;;;;;0.60;0.60;;;4.60;99.90;;;;;;6093513;23;20250;-87
2021/03/15 22:14:15;;;;;;;0.57;0.57;;;2.70;99.90;;;;;;6093701;23;20186;-87
2021/03/15 22:16:43;;;;;;;0.60;0.60;;;3.80;99.90;;;;;;6093870;23;20186;-87
2021/03/15 22:19:10;;;;;;;0.60;0.60;;;9.00;99.90;;;;;;6093449;23;20231;-86
2021/03/15 22:21:38;;;;;;;0.52;0.52;;;4.90;99.90;;;;;;6093230;23;20493;-86
2021/03/15 22:24:07;;;;;;;0.60;0.60;;;3.40;99.90;;;;;;6092748;23;20176;-85
2021/03/15 22:26:34;;;;;;;0.50;0.50;;;5.00;99.90;;;;;;6093427;23;20183;-86
2021/03/15 22:29:01;;;;;;;0.57;0.57;;;3.60;99.90;;;;;;6093398;23;20181;-86
2021/03/15 22:31:29;;;;;;;0.60;0.60;;;7.10;99.90;;;;;;6093453;23;20179;-86
2021/03/15 22:34:03;;;;;;;0.57;0.57;;;5.90;99.90;;;;;;6092108;23;20650;-85
2021/03/15 22:36:31;;;;;;;0.60;0.60;;;4.00;99.90;;;;;;6095896;23;20577;-85
2021/03/15 22:38:57;;;;;;;0.60;0.60;;;3.90;99.90;;;;;;6097272;23;20171;-85
2021/03/15 22:41:24;;;;;;;0.50;0.50;;;4.30;99.90;;;;;;6098056;23;20203;-85
2021/03/15 22:43:50;;;;;;;0.60;0.60;;;3.90;99.90;;;;;;6097042;23;20183;-85
2021/03/15 22:46:17;;;;;;;0.60;0.60;;;3.50;99.90;;;;;;6098626;23;20214;-86
2021/03/15 22:48:43;;;;;;;0.60;0.60;;;5.40;99.90;;;;;;6094319;23;20209;-86
2021/03/15 22:51:10;;;;;;;0.50;0.50;;;3.80;99.90;;;;;;6094194;23;20175;-87
2021/03/15 22:53:37;;;;;;;0.50;0.50;;;3.60;99.90;;;;;;6092132;23;20211;-89
2021/03/15 22:56:03;;;;;;;0.60;0.60;;;3.30;99.90;;;;;;6090888;23;20266;-90
2021/03/15 22:58:30;;;;;;;0.60;0.60;;;4.30;99.90;;;;;;6093017;23;20183;-89
2021/03/15 23:00:56;;;;;;;0.60;0.60;;;2.70;99.90;;;;;;6093032;23;20171;-89
2021/03/15 23:03:23;;;;;;;0.60;0.60;;;3.10;99.90;;;;;;6095227;23;20195;-89
2021/03/15 23:05:49;;;;;;;0.57;0.57;;;4.70;99.90;;;;;;6093030;23;20206;-90
2021/03/15 23:08:23;;;;;;;0.60;0.60;;;3.70;99.90;;;;;;6093009;23;20175;-88
2021/03/15 23:10:50;;;;;;;0.50;0.50;;;7.30;99.90;;;;;;6093095;23;20171;-87
2021/03/15 23:13:17;;;;;;;0.60;0.60;;;6.00;99.90;;;;;;6093769;23;20175;-88
2021/03/15 23:15:48;;;;;;;0.60;0.60;;;6.40;99.90;;;;;;6104710;23;20469;-89
2021/03/15 23:18:14;;;;;;;0.50;0.50;;;2.80;99.90;;;;;;6103651;23;20175;-88
2021/03/15 23:20:44;;;;;;;0.60;0.60;;;6.60;99.90;;;;;;6104667;23;20176;-88
2021/03/15 23:23:13;;;;;;;0.50;0.50;;;3.00;99.90;;;;;;6104361;23;20205;-88
2021/03/15 23:25:42;;;;;;;0.50;0.50;;;4.30;99.90;;;;;;6094326;23;20179;-88
2021/03/15 23:28:11;;;;;;;0.60;0.60;;;5.80;99.90;;;;;;6093310;23;20183;-88
2021/03/15 23:30:41;;;;;;;0.52;0.52;;;3.40;99.90;;;;;;6092283;23;20198;-88
2021/03/15 23:33:09;;;;;;;0.57;0.57;;;3.40;99.90;;;;;;6092182;23;20270;-88